sensor_id;sensor_type;location;lat;lon;timestamp;temperature;humidity
2497;DHT22;1259;48.306;14.374;2022-09-02T00:00:35;14.20;99.90
2497;DHT22;1259;48.306;14.374;2022-09-02T00:03:03;14.20;99.90
2497;DHT22;1259;48.306;14.374;2022-09-02T00:05:31;14.20;99.90
2497;DHT22;1259;48.306;14.374;2022-09-02T00:07:58;14.20;99.90
2497;DHT22;1259;48.306;14.374;2022-09-02T00:10:25;14.10;99.90
2497;DHT22;1259;48.306;14.374;2022-09-02T00:12:52;14.10;99.90
2497;DHT22;1259;48.306;14.374;2022-09-02T00:15:19;14.10;99.90
2497;DHT22;1259;48.306;14.374;2022-09-02T00:17:46;14.10;99.90
2497;DHT22;1259;48.306;14.374;2022-09-02T00:20:13;14.00;99.90
2497;DHT22;1259;48.306;14.374;2022-09-02T00:22:41;14.00;99.90
2497;DHT22;1259;48.306;14.374;2022-09-02T00:25:09;13.90;99.90
2497;DHT22;1259;48.306;14.374;2022-09-02T00:27:36;14.00;99.90
2497;DHT22;1259;48.306;14.374;2022-09-02T00:30:05;13.90;99.90
2497;DHT22;1259;48.306;14.374;2022-09-02T00:32:32;13.90;99.90
2497;DHT22;1259;48.306;14.374;2022-09-02T00:35:00;13.80;99.90
2497;DHT22;1259;48.306;14.374;2022-09-02T00:37:27;13.90;99.90
2497;DHT22;1259;48.306;14.374;2022-09-02T00:39:55;13.80;99.90
2497;DHT22;1259;48.306;14.374;2022-09-02T00:42:24;13.80;99.90
2497;DHT22;1259;48.306;14.374;2022-09-02T00:44:52;13.80;99.90
2497;DHT22;1259;48.306;14.374;2022-09-02T00:47:19;13.70;99.90
2497;DHT22;1259;48.306;14.374;2022-09-02T00:49:50;13.70;99.90
2497;DHT22;1259;48.306;14.374;2022-09-02T00:52:21;13.70;99.90
2497;DHT22;1259;48.306;14.374;2022-09-02T00:54:52;13.60;99.90
2497;DHT22;1259;48.306;14.374;2022-09-02T00:57:25;13.60;99.90
2497;DHT22;1259;48.306;14.374;2022-09-02T01:00:00;13.60;99.90
2497;DHT22;1259;48.306;14.374;2022-09-02T01:02:29;13.60;99.90
2497;DHT22;1259;48.306;14.374;2022-09-02T01:04:56;13.50;99.90
2497;DHT22;1259;48.306;14.374;2022-09-02T01:07:24;13.50;99.90
2497;DHT22;1259;48.306;14.374;2022-09-02T01:09:52;13.50;99.90
2497;DHT22;1259;48.306;14.374;2022-09-02T01:12:22;13.50;99.90
2497;DHT22;1259;48.306;14.374;2022-09-02T01:14:52;13.40;99.90
2497;DHT22;1259;48.306;14.374;2022-09-02T01:17:19;13.40;99.90
2497;DHT22;1259;48.306;14.374;2022-09-02T01:19:49;13.40;99.90
2497;DHT22;1259;48.306;14.374;2022-09-02T01:22:21;13.40;99.90
2497;DHT22;1259;48.306;14.374;2022-09-02T01:24:49;13.40;99.90
2497;DHT22;1259;48.306;14.374;2022-09-02T01:27:18;13.30;99.90
2497;DHT22;1259;48.306;14.374;2022-09-02T01:29:50;13.30;99.90
2497;DHT22;1259;48.306;14.374;2022-09-02T01:32:17;13.30;99.90
2497;DHT22;1259;48.306;14.374;2022-09-02T01:34:44;13.30;99.90
2497;DHT22;1259;48.306;14.374;2022-09-02T01:37:11;13.30;99.90
2497;DHT22;1259;48.306;14.374;2022-09-02T01:39:39;13.20;99.90
2497;DHT22;1259;48.306;14.374;2022-09-02T01:42:06;13.20;99.90
2497;DHT22;1259;48.306;14.374;2022-09-02T01:44:34;13.20;99.90
2497;DHT22;1259;48.306;14.374;2022-09-02T01:47:08;13.20;99.90
2497;DHT22;1259;48.306;14.374;2022-09-02T01:49:35;13.20;99.90
2497;DHT22;1259;48.306;14.374;2022-09-02T01:52:03;13.10;99.90
2497;DHT22;1259;48.306;14.374;2022-09-02T01:54:30;13.10;99.90
2497;DHT22;1259;48.306;14.374;2022-09-02T01:56:58;13.20;99.90
2497;DHT22;1259;48.306;14.374;2022-09-02T01:59:25;13.20;99.90
2497;DHT22;1259;48.306;14.374;2022-09-02T02:01:52;13.10;99.90
2497;DHT22;1259;48.306;14.374;2022-09-02T02:04:19;13.10;99.90
2497;DHT22;1259;48.306;14.374;2022-09-02T02:06:50;13.10;99.90
2497;DHT22;1259;48.306;14.374;2022-09-02T02:09:17;13.10;99.90
2497;DHT22;1259;48.306;14.374;2022-09-02T02:11:46;13.10;99.90
2497;DHT22;1259;48.306;14.374;2022-09-02T02:14:14;13.00;99.90
2497;DHT22;1259;48.306;14.374;2022-09-02T02:16:42;13.10;99.90
2497;DHT22;1259;48.306;14.374;2022-09-02T02:19:09;13.10;99.90
2497;DHT22;1259;48.306;14.374;2022-09-02T02:21:36;13.10;99.90
2497;DHT22;1259;48.306;14.374;2022-09-02T02:24:03;13.00;99.90
2497;DHT22;1259;48.306;14.374;2022-09-02T02:26:30;13.00;99.90
2497;DHT22;1259;48.306;14.374;2022-09-02T02:28:58;12.90;99.90
2497;DHT22;1259;48.306;14.374;2022-09-02T02:31:26;12.90;99.90
2497;DHT22;1259;48.306;14.374;2022-09-02T02:33:54;12.90;99.90
2497;DHT22;1259;48.306;14.374;2022-09-02T02:36:21;12.90;99.90
2497;DHT22;1259;48.306;14.374;2022-09-02T02:38:48;12.80;99.90
2497;DHT22;1259;48.306;14.374;2022-09-02T02:41:15;12.80;99.90
2497;DHT22;1259;48.306;14.374;2022-09-02T02:43:42;12.80;99.90
2497;DHT22;1259;48.306;14.374;2022-09-02T02:46:09;12.70;99.90
2497;DHT22;1259;48.306;14.374;2022-09-02T02:48:37;12.70;99.90
2497;DHT22;1259;48.306;14.374;2022-09-02T02:51:05;12.70;99.90
2497;DHT22;1259;48.306;14.374;2022-09-02T02:53:33;12.60;99.90
2497;DHT22;1259;48.306;14.374;2022-09-02T02:56:02;12.60;99.90
2497;DHT22;1259;48.306;14.374;2022-09-02T02:58:30;12.60;99.90
2497;DHT22;1259;48.306;14.374;2022-09-02T03:00:58;12.60;99.90
2497;DHT22;1259;48.306;14.374;2022-09-02T03:03:25;12.60;99.90
2497;DHT22;1259;48.306;14.374;2022-09-02T03:05:54;12.50;99.90
2497;DHT22;1259;48.306;14.374;2022-09-02T03:08:22;12.50;99.90
2497;DHT22;1259;48.306;14.374;2022-09-02T03:10:52;12.50;99.90
2497;DHT22;1259;48.306;14.374;2022-09-02T03:13:21;12.40;99.90
2497;DHT22;1259;48.306;14.374;2022-09-02T03:15:48;12.40;99.90
2497;DHT22;1259;48.306;14.374;2022-09-02T03:18:15;12.40;99.90
2497;DHT22;1259;48.306;14.374;2022-09-02T03:20:43;12.40;99.90
2497;DHT22;1259;48.306;14.374;2022-09-02T03:23:11;12.40;99.90
2497;DHT22;1259;48.306;14.374;2022-09-02T03:25:41;12.30;99.90
2497;DHT22;1259;48.306;14.374;2022-09-02T03:28:08;12.40;99.90
2497;DHT22;1259;48.306;14.374;2022-09-02T03:30:36;12.40;99.90
2497;DHT22;1259;48.306;14.374;2022-09-02T03:33:04;12.40;99.90
2497;DHT22;1259;48.306;14.374;2022-09-02T03:35:33;12.40;99.90
2497;DHT22;1259;48.306;14.374;2022-09-02T03:38:03;12.40;99.90
2497;DHT22;1259;48.306;14.374;2022-09-02T03:40:32;12.30;99.90
2497;DHT22;1259;48.306;14.374;2022-09-02T03:42:59;12.30;99.90
2497;DHT22;1259;48.306;14.374;2022-09-02T03:45:26;12.30;99.90
2497;DHT22;1259;48.306;14.374;2022-09-02T03:47:54;12.30;99.90
2497;DHT22;1259;48.306;14.374;2022-09-02T03:50:24;12.30;99.90
2497;DHT22;1259;48.306;14.374;2022-09-02T03:52:52;12.30;99.90
2497;DHT22;1259;48.306;14.374;2022-09-02T03:55:20;12.20;99.90
2497;DHT22;1259;48.306;14.374;2022-09-02T03:57:48;12.20;99.90
2497;DHT22;1259;48.306;14.374;2022-09-02T04:00:17;12.20;99.90
2497;DHT22;1259;48.306;14.374;2022-09-02T04:02:45;12.10;99.90
2497;DHT22;1259;48.306;14.374;2022-09-02T04:05:12;12.20;99.90
2497;DHT22;1259;48.306;14.374;2022-09-02T04:07:40;12.10;99.90
2497;DHT22;1259;48.306;14.374;2022-09-02T04:10:08;12.10;99.90
2497;DHT22;1259;48.306;14.374;2022-09-02T04:12:35;12.10;99.90
2497;DHT22;1259;48.306;14.374;2022-09-02T04:15:06;12.10;99.90
2497;DHT22;1259;48.306;14.374;2022-09-02T04:17:34;12.10;99.90
2497;DHT22;1259;48.306;14.374;2022-09-02T04:20:02;12.10;99.90
2497;DHT22;1259;48.306;14.374;2022-09-02T04:22:30;12.10;99.90
2497;DHT22;1259;48.306;14.374;2022-09-02T04:24:57;12.10;99.90
2497;DHT22;1259;48.306;14.374;2022-09-02T04:27:25;12.20;99.90
2497;DHT22;1259;48.306;14.374;2022-09-02T04:29:52;12.20;99.90
2497;DHT22;1259;48.306;14.374;2022-09-02T04:32:20;12.20;99.90
2497;DHT22;1259;48.306;14.374;2022-09-02T04:34:47;12.20;99.90
2497;DHT22;1259;48.306;14.374;2022-09-02T04:37:15;12.20;99.90
2497;DHT22;1259;48.306;14.374;2022-09-02T04:39:42;12.20;99.90
2497;DHT22;1259;48.306;14.374;2022-09-02T04:42:09;12.20;99.90
2497;DHT22;1259;48.306;14.374;2022-09-02T04:44:36;12.20;99.90
2497;DHT22;1259;48.306;14.374;2022-09-02T04:47:03;12.20;99.90
2497;DHT22;1259;48.306;14.374;2022-09-02T04:49:31;12.20;99.90
2497;DHT22;1259;48.306;14.374;2022-09-02T04:51:59;12.20;99.90
2497;DHT22;1259;48.306;14.374;2022-09-02T04:54:26;12.20;99.90
2497;DHT22;1259;48.306;14.374;2022-09-02T04:56:53;12.10;99.90
2497;DHT22;1259;48.306;14.374;2022-09-02T04:59:20;12.30;99.90
2497;DHT22;1259;48.306;14.374;2022-09-02T05:01:48;12.30;99.90
2497;DHT22;1259;48.306;14.374;2022-09-02T05:04:15;12.30;99.90
2497;DHT22;1259;48.306;14.374;2022-09-02T05:06:44;12.20;99.90
2497;DHT22;1259;48.306;14.374;2022-09-02T05:09:11;12.30;99.90
2497;DHT22;1259;48.306;14.374;2022-09-02T05:11:38;12.40;99.90
2497;DHT22;1259;48.306;14.374;2022-09-02T05:14:06;12.40;99.90
2497;DHT22;1259;48.306;14.374;2022-09-02T05:16:36;12.40;99.90
2497;DHT22;1259;48.306;14.374;2022-09-02T05:19:04;12.50;99.90
2497;DHT22;1259;48.306;14.374;2022-09-02T05:21:31;12.50;99.90
2497;DHT22;1259;48.306;14.374;2022-09-02T05:24:00;12.50;99.90
2497;DHT22;1259;48.306;14.374;2022-09-02T05:26:27;12.60;99.90
2497;DHT22;1259;48.306;14.374;2022-09-02T05:28:54;12.60;99.90
2497;DHT22;1259;48.306;14.374;2022-09-02T05:31:21;12.70;99.90
2497;DHT22;1259;48.306;14.374;2022-09-02T05:33:48;12.70;99.90
2497;DHT22;1259;48.306;14.374;2022-09-02T05:36:18;12.60;99.90
2497;DHT22;1259;48.306;14.374;2022-09-02T05:38:45;12.70;99.90
2497;DHT22;1259;48.306;14.374;2022-09-02T05:41:15;12.80;99.90
2497;DHT22;1259;48.306;14.374;2022-09-02T05:43:45;12.90;99.90
2497;DHT22;1259;48.306;14.374;2022-09-02T05:46:15;12.90;99.90
2497;DHT22;1259;48.306;14.374;2022-09-02T05:48:44;13.00;99.90
2497;DHT22;1259;48.306;14.374;2022-09-02T05:51:28;13.00;99.90
2497;DHT22;1259;48.306;14.374;2022-09-02T05:53:58;13.00;99.90
2497;DHT22;1259;48.306;14.374;2022-09-02T05:56:30;13.00;99.90
2497;DHT22;1259;48.306;14.374;2022-09-02T05:58:57;13.10;99.90
2497;DHT22;1259;48.306;14.374;2022-09-02T06:01:25;13.30;99.90
2497;DHT22;1259;48.306;14.374;2022-09-02T06:03:52;13.30;99.90
2497;DHT22;1259;48.306;14.374;2022-09-02T06:06:20;13.30;99.90
2497;DHT22;1259;48.306;14.374;2022-09-02T06:08:48;13.30;99.90
2497;DHT22;1259;48.306;14.374;2022-09-02T06:11:15;13.30;99.90
2497;DHT22;1259;48.306;14.374;2022-09-02T06:13:46;13.30;99.90
2497;DHT22;1259;48.306;14.374;2022-09-02T06:16:15;13.40;99.90
2497;DHT22;1259;48.306;14.374;2022-09-02T06:18:44;13.50;99.90
2497;DHT22;1259;48.306;14.374;2022-09-02T06:21:11;13.60;99.90
2497;DHT22;1259;48.306;14.374;2022-09-02T06:23:39;13.70;99.90
2497;DHT22;1259;48.306;14.374;2022-09-02T06:26:08;13.80;99.90
2497;DHT22;1259;48.306;14.374;2022-09-02T06:28:36;14.00;99.90
2497;DHT22;1259;48.306;14.374;2022-09-02T06:31:08;14.10;99.90
2497;DHT22;1259;48.306;14.374;2022-09-02T06:33:36;14.00;99.90
2497;DHT22;1259;48.306;14.374;2022-09-02T06:36:06;14.00;99.90
2497;DHT22;1259;48.306;14.374;2022-09-02T06:38:36;14.00;99.90
2497;DHT22;1259;48.306;14.374;2022-09-02T06:41:03;14.10;99.90
2497;DHT22;1259;48.306;14.374;2022-09-02T06:43:30;14.30;99.90
2497;DHT22;1259;48.306;14.374;2022-09-02T06:45:57;14.30;99.90
2497;DHT22;1259;48.306;14.374;2022-09-02T06:48:26;14.50;99.90
2497;DHT22;1259;48.306;14.374;2022-09-02T06:50:53;14.60;99.90
2497;DHT22;1259;48.306;14.374;2022-09-02T06:53:21;14.80;99.90
2497;DHT22;1259;48.306;14.374;2022-09-02T06:55:48;15.00;99.90
2497;DHT22;1259;48.306;14.374;2022-09-02T06:58:15;15.10;99.90
2497;DHT22;1259;48.306;14.374;2022-09-02T07:00:42;15.00;99.90
2497;DHT22;1259;48.306;14.374;2022-09-02T07:03:09;14.90;99.90
2497;DHT22;1259;48.306;14.374;2022-09-02T07:06:00;15.10;99.90
2497;DHT22;1259;48.306;14.374;2022-09-02T07:08:30;15.40;99.90
2497;DHT22;1259;48.306;14.374;2022-09-02T07:10:57;15.60;99.90
2497;DHT22;1259;48.306;14.374;2022-09-02T07:13:24;15.70;99.90
2497;DHT22;1259;48.306;14.374;2022-09-02T07:15:54;15.50;99.90
2497;DHT22;1259;48.306;14.374;2022-09-02T07:18:22;15.60;99.90
2497;DHT22;1259;48.306;14.374;2022-09-02T07:20:49;15.70;99.90
2497;DHT22;1259;48.306;14.374;2022-09-02T07:23:17;15.70;99.90
2497;DHT22;1259;48.306;14.374;2022-09-02T07:25:45;15.70;99.90
2497;DHT22;1259;48.306;14.374;2022-09-02T07:28:13;15.80;99.90
2497;DHT22;1259;48.306;14.374;2022-09-02T07:30:46;16.00;99.90
2497;DHT22;1259;48.306;14.374;2022-09-02T07:33:14;16.40;99.90
2497;DHT22;1259;48.306;14.374;2022-09-02T07:35:42;16.60;99.90
2497;DHT22;1259;48.306;14.374;2022-09-02T07:38:12;16.80;99.90
2497;DHT22;1259;48.306;14.374;2022-09-02T07:40:42;16.90;99.90
2497;DHT22;1259;48.306;14.374;2022-09-02T07:43:11;16.90;99.90
2497;DHT22;1259;48.306;14.374;2022-09-02T07:45:38;17.00;99.90
2497;DHT22;1259;48.306;14.374;2022-09-02T07:48:08;17.10;99.90
2497;DHT22;1259;48.306;14.374;2022-09-02T07:50:35;17.20;99.90
2497;DHT22;1259;48.306;14.374;2022-09-02T07:53:03;17.30;99.90
2497;DHT22;1259;48.306;14.374;2022-09-02T07:55:31;17.40;99.90
2497;DHT22;1259;48.306;14.374;2022-09-02T07:58:02;17.40;99.90
2497;DHT22;1259;48.306;14.374;2022-09-02T08:00:29;17.70;99.90
2497;DHT22;1259;48.306;14.374;2022-09-02T08:03:02;17.70;99.90
2497;DHT22;1259;48.306;14.374;2022-09-02T08:05:31;17.80;99.90
2497;DHT22;1259;48.306;14.374;2022-09-02T08:08:01;18.00;99.90
2497;DHT22;1259;48.306;14.374;2022-09-02T08:10:29;17.80;99.90
2497;DHT22;1259;48.306;14.374;2022-09-02T08:12:57;17.90;99.90
2497;DHT22;1259;48.306;14.374;2022-09-02T08:15:27;18.00;99.90
2497;DHT22;1259;48.306;14.374;2022-09-02T08:17:54;18.00;99.90
2497;DHT22;1259;48.306;14.374;2022-09-02T08:20:24;18.00;99.90
2497;DHT22;1259;48.306;14.374;2022-09-02T08:22:53;18.30;99.90
2497;DHT22;1259;48.306;14.374;2022-09-02T08:25:20;18.40;99.90
2497;DHT22;1259;48.306;14.374;2022-09-02T08:27:47;18.40;99.90
2497;DHT22;1259;48.306;14.374;2022-09-02T08:30:17;18.40;99.90
2497;DHT22;1259;48.306;14.374;2022-09-02T08:32:46;18.50;99.90
2497;DHT22;1259;48.306;14.374;2022-09-02T08:35:13;18.30;99.90
2497;DHT22;1259;48.306;14.374;2022-09-02T08:37:39;18.60;99.90
2497;DHT22;1259;48.306;14.374;2022-09-02T08:40:12;18.70;99.90
2497;DHT22;1259;48.306;14.374;2022-09-02T08:42:43;18.90;99.90
2497;DHT22;1259;48.306;14.374;2022-09-02T08:45:12;19.00;99.90
2497;DHT22;1259;48.306;14.374;2022-09-02T08:47:42;18.90;99.90
2497;DHT22;1259;48.306;14.374;2022-09-02T08:50:14;19.00;99.90
2497;DHT22;1259;48.306;14.374;2022-09-02T08:52:47;19.10;99.90
2497;DHT22;1259;48.306;14.374;2022-09-02T08:55:23;19.20;99.90
2497;DHT22;1259;48.306;14.374;2022-09-02T08:57:54;19.10;99.90
2497;DHT22;1259;48.306;14.374;2022-09-02T09:00:22;19.40;99.90
2497;DHT22;1259;48.306;14.374;2022-09-02T09:02:55;19.40;99.90
2497;DHT22;1259;48.306;14.374;2022-09-02T09:05:38;19.30;99.90
2497;DHT22;1259;48.306;14.374;2022-09-02T09:08:18;19.50;99.90
2497;DHT22;1259;48.306;14.374;2022-09-02T09:10:58;19.20;99.90
2497;DHT22;1259;48.306;14.374;2022-09-02T09:13:54;18.80;99.90
2497;DHT22;1259;48.306;14.374;2022-09-02T09:16:37;19.10;99.90
2497;DHT22;1259;48.306;14.374;2022-09-02T09:19:10;19.30;99.90
2497;DHT22;1259;48.306;14.374;2022-09-02T09:21:40;19.50;99.90
2497;DHT22;1259;48.306;14.374;2022-09-02T09:24:17;19.20;99.90
2497;DHT22;1259;48.306;14.374;2022-09-02T09:26:46;19.20;99.90
2497;DHT22;1259;48.306;14.374;2022-09-02T09:29:13;19.50;99.90
2497;DHT22;1259;48.306;14.374;2022-09-02T09:31:41;19.70;99.90
2497;DHT22;1259;48.306;14.374;2022-09-02T09:34:11;19.60;99.90
2497;DHT22;1259;48.306;14.374;2022-09-02T09:36:51;19.30;99.90
2497;DHT22;1259;48.306;14.374;2022-09-02T09:39:27;19.30;99.90
2497;DHT22;1259;48.306;14.374;2022-09-02T09:41:55;19.20;99.90
2497;DHT22;1259;48.306;14.374;2022-09-02T09:44:40;19.00;99.60
2497;DHT22;1259;48.306;14.374;2022-09-02T09:47:13;19.10;99.90
2497;DHT22;1259;48.306;14.374;2022-09-02T09:49:44;19.50;99.60
2497;DHT22;1259;48.306;14.374;2022-09-02T09:52:21;19.30;99.60
2497;DHT22;1259;48.306;14.374;2022-09-02T09:55:06;19.60;96.20
2497;DHT22;1259;48.306;14.374;2022-09-02T09:57:36;19.20;97.70
2497;DHT22;1259;48.306;14.374;2022-09-02T10:00:20;19.40;97.90
2497;DHT22;1259;48.306;14.374;2022-09-02T10:02:49;19.60;98.90
2497;DHT22;1259;48.306;14.374;2022-09-02T10:05:26;19.30;96.00
2497;DHT22;1259;48.306;14.374;2022-09-02T10:07:57;19.50;99.10
2497;DHT22;1259;48.306;14.374;2022-09-02T10:10:26;19.70;99.90
2497;DHT22;1259;48.306;14.374;2022-09-02T10:12:56;19.80;95.50
2497;DHT22;1259;48.306;14.374;2022-09-02T10:15:31;19.60;95.20
2497;DHT22;1259;48.306;14.374;2022-09-02T10:18:06;19.90;95.50
2497;DHT22;1259;48.306;14.374;2022-09-02T10:20:44;19.80;95.30
2497;DHT22;1259;48.306;14.374;2022-09-02T10:23:30;19.60;93.90
2497;DHT22;1259;48.306;14.374;2022-09-02T10:26:08;19.90;95.40
2497;DHT22;1259;48.306;14.374;2022-09-02T10:31:40;20.20;96.90
2497;DHT22;1259;48.306;14.374;2022-09-02T10:34:14;20.20;96.40
2497;DHT22;1259;48.306;14.374;2022-09-02T10:36:58;20.20;95.00
2497;DHT22;1259;48.306;14.374;2022-09-02T10:39:38;20.50;97.70
2497;DHT22;1259;48.306;14.374;2022-09-02T10:42:17;20.70;97.60
2497;DHT22;1259;48.306;14.374;2022-09-02T10:45:03;20.70;94.40
2497;DHT22;1259;48.306;14.374;2022-09-02T10:47:35;20.70;97.20
2497;DHT22;1259;48.306;14.374;2022-09-02T10:50:09;20.60;93.60
2497;DHT22;1259;48.306;14.374;2022-09-02T10:53:04;20.40;94.00
2497;DHT22;1259;48.306;14.374;2022-09-02T10:55:47;20.50;93.50
2497;DHT22;1259;48.306;14.374;2022-09-02T10:58:21;20.40;94.00
2497;DHT22;1259;48.306;14.374;2022-09-02T11:00:54;20.70;96.90
2497;DHT22;1259;48.306;14.374;2022-09-02T11:03:26;21.00;95.20
2497;DHT22;1259;48.306;14.374;2022-09-02T11:05:57;21.10;96.40
2497;DHT22;1259;48.306;14.374;2022-09-02T11:08:34;21.30;97.40
2497;DHT22;1259;48.306;14.374;2022-09-02T11:11:07;21.40;96.30
2497;DHT22;1259;48.306;14.374;2022-09-02T11:13:39;21.50;98.70
2497;DHT22;1259;48.306;14.374;2022-09-02T11:16:15;21.60;98.60
2497;DHT22;1259;48.306;14.374;2022-09-02T11:18:48;21.20;96.60
2497;DHT22;1259;48.306;14.374;2022-09-02T11:21:26;20.90;94.10
2497;DHT22;1259;48.306;14.374;2022-09-02T11:24:00;20.80;95.70
2497;DHT22;1259;48.306;14.374;2022-09-02T11:26:35;21.10;97.60
2497;DHT22;1259;48.306;14.374;2022-09-02T11:29:10;20.90;96.70
2497;DHT22;1259;48.306;14.374;2022-09-02T11:31:42;20.40;92.60
2497;DHT22;1259;48.306;14.374;2022-09-02T11:34:16;20.60;96.10
2497;DHT22;1259;48.306;14.374;2022-09-02T11:36:45;20.90;97.30
2497;DHT22;1259;48.306;14.374;2022-09-02T11:39:17;21.10;98.40
2497;DHT22;1259;48.306;14.374;2022-09-02T11:41:59;21.20;98.30
2497;DHT22;1259;48.306;14.374;2022-09-02T11:48:08;21.20;96.00
2497;DHT22;1259;48.306;14.374;2022-09-02T11:50:49;21.20;96.10
2497;DHT22;1259;48.306;14.374;2022-09-02T11:53:22;21.30;97.90
2497;DHT22;1259;48.306;14.374;2022-09-02T11:55:54;21.00;95.40
2497;DHT22;1259;48.306;14.374;2022-09-02T11:58:38;20.80;94.50
2497;DHT22;1259;48.306;14.374;2022-09-02T12:01:21;21.00;96.00
2497;DHT22;1259;48.306;14.374;2022-09-02T12:03:53;21.00;95.40
2497;DHT22;1259;48.306;14.374;2022-09-02T12:06:22;20.60;93.80
2497;DHT22;1259;48.306;14.374;2022-09-02T12:09:00;20.30;94.50
2497;DHT22;1259;48.306;14.374;2022-09-02T12:11:45;20.30;96.00
2497;DHT22;1259;48.306;14.374;2022-09-02T12:17:42;19.90;97.50
2497;DHT22;1259;48.306;14.374;2022-09-02T12:22:53;19.90;97.90
2497;DHT22;1259;48.306;14.374;2022-09-02T12:25:42;19.90;98.10
2497;DHT22;1259;48.306;14.374;2022-09-02T12:28:23;19.80;98.10
2497;DHT22;1259;48.306;14.374;2022-09-02T12:31:15;19.80;98.50
2497;DHT22;1259;48.306;14.374;2022-09-02T12:33:49;19.90;97.20
2497;DHT22;1259;48.306;14.374;2022-09-02T12:36:49;20.00;99.20
2497;DHT22;1259;48.306;14.374;2022-09-02T12:39:46;20.40;99.90
2497;DHT22;1259;48.306;14.374;2022-09-02T12:42:23;20.50;98.00
2497;DHT22;1259;48.306;14.374;2022-09-02T12:44:54;20.50;97.30
2497;DHT22;1259;48.306;14.374;2022-09-02T12:47:31;20.60;98.10
2497;DHT22;1259;48.306;14.374;2022-09-02T12:50:05;20.60;96.90
2497;DHT22;1259;48.306;14.374;2022-09-02T12:52:42;20.70;97.30
2497;DHT22;1259;48.306;14.374;2022-09-02T12:55:15;20.80;97.20
2497;DHT22;1259;48.306;14.374;2022-09-02T12:57:46;20.90;97.90
2497;DHT22;1259;48.306;14.374;2022-09-02T13:00:24;20.80;95.50
2497;DHT22;1259;48.306;14.374;2022-09-02T13:02:59;20.80;95.90
2497;DHT22;1259;48.306;14.374;2022-09-02T13:05:41;20.80;95.90
2497;DHT22;1259;48.306;14.374;2022-09-02T13:08:29;20.70;94.00
2497;DHT22;1259;48.306;14.374;2022-09-02T13:17:39;20.90;95.60
2497;DHT22;1259;48.306;14.374;2022-09-02T13:20:44;20.80;94.80
2497;DHT22;1259;48.306;14.374;2022-09-02T13:29:58;21.10;96.20
2497;DHT22;1259;48.306;14.374;2022-09-02T13:32:29;21.30;96.00
2497;DHT22;1259;48.306;14.374;2022-09-02T13:34:58;21.10;95.20
2497;DHT22;1259;48.306;14.374;2022-09-02T13:37:29;20.70;93.60
2497;DHT22;1259;48.306;14.374;2022-09-02T13:39:57;20.40;92.80
2497;DHT22;1259;48.306;14.374;2022-09-02T13:42:26;20.60;95.10
2497;DHT22;1259;48.306;14.374;2022-09-02T13:45:11;20.50;94.10
2497;DHT22;1259;48.306;14.374;2022-09-02T13:47:41;20.40;93.80
2497;DHT22;1259;48.306;14.374;2022-09-02T13:50:09;20.20;93.20
2497;DHT22;1259;48.306;14.374;2022-09-02T13:52:40;20.10;93.90
2497;DHT22;1259;48.306;14.374;2022-09-02T13:55:09;20.00;92.60
2497;DHT22;1259;48.306;14.374;2022-09-02T13:57:38;20.00;93.70
2497;DHT22;1259;48.306;14.374;2022-09-02T14:00:12;19.90;93.20
2497;DHT22;1259;48.306;14.374;2022-09-02T14:02:40;19.80;93.40
2497;DHT22;1259;48.306;14.374;2022-09-02T14:05:21;19.90;93.30
2497;DHT22;1259;48.306;14.374;2022-09-02T14:07:53;20.00;94.10
2497;DHT22;1259;48.306;14.374;2022-09-02T14:10:23;19.90;92.80
2497;DHT22;1259;48.306;14.374;2022-09-02T14:12:52;19.90;94.00
2497;DHT22;1259;48.306;14.374;2022-09-02T14:15:23;20.10;94.10
2497;DHT22;1259;48.306;14.374;2022-09-02T14:18:06;20.10;93.70
2497;DHT22;1259;48.306;14.374;2022-09-02T14:20:33;20.10;93.70
2497;DHT22;1259;48.306;14.374;2022-09-02T14:23:02;20.10;92.60
2497;DHT22;1259;48.306;14.374;2022-09-02T14:25:33;20.10;93.10
2497;DHT22;1259;48.306;14.374;2022-09-02T14:28:07;20.00;92.30
2497;DHT22;1259;48.306;14.374;2022-09-02T14:30:37;20.10;94.30
2497;DHT22;1259;48.306;14.374;2022-09-02T14:33:24;20.10;93.40
2497;DHT22;1259;48.306;14.374;2022-09-02T14:35:58;20.20;93.50
2497;DHT22;1259;48.306;14.374;2022-09-02T14:38:28;20.20;94.90
2497;DHT22;1259;48.306;14.374;2022-09-02T14:41:08;20.10;93.80
2497;DHT22;1259;48.306;14.374;2022-09-02T14:43:45;19.90;93.40
2497;DHT22;1259;48.306;14.374;2022-09-02T14:46:29;19.90;94.00
2497;DHT22;1259;48.306;14.374;2022-09-02T14:49:00;19.90;94.20
2497;DHT22;1259;48.306;14.374;2022-09-02T14:51:33;19.90;92.80
2497;DHT22;1259;48.306;14.374;2022-09-02T14:54:02;19.90;94.30
2497;DHT22;1259;48.306;14.374;2022-09-02T14:56:43;19.90;94.00
2497;DHT22;1259;48.306;14.374;2022-09-02T14:59:10;19.90;94.30
2497;DHT22;1259;48.306;14.374;2022-09-02T15:01:39;19.90;93.80
2497;DHT22;1259;48.306;14.374;2022-09-02T15:04:06;19.60;94.10
2497;DHT22;1259;48.306;14.374;2022-09-02T15:06:33;19.40;92.70
2497;DHT22;1259;48.306;14.374;2022-09-02T15:09:02;19.30;92.60
2497;DHT22;1259;48.306;14.374;2022-09-02T15:11:31;19.30;93.70
2497;DHT22;1259;48.306;14.374;2022-09-02T15:13:58;19.30;93.50
2497;DHT22;1259;48.306;14.374;2022-09-02T15:16:25;19.40;94.50
2497;DHT22;1259;48.306;14.374;2022-09-02T15:18:53;19.40;94.30
2497;DHT22;1259;48.306;14.374;2022-09-02T15:21:20;19.40;93.70
2497;DHT22;1259;48.306;14.374;2022-09-02T15:23:48;19.30;93.40
2497;DHT22;1259;48.306;14.374;2022-09-02T15:26:17;19.30;93.60
2497;DHT22;1259;48.306;14.374;2022-09-02T15:28:44;19.20;93.00
2497;DHT22;1259;48.306;14.374;2022-09-02T15:31:10;19.20;93.80
2497;DHT22;1259;48.306;14.374;2022-09-02T15:33:38;19.30;93.90
2497;DHT22;1259;48.306;14.374;2022-09-02T15:36:07;19.10;94.40
2497;DHT22;1259;48.306;14.374;2022-09-02T15:38:35;19.20;94.10
2497;DHT22;1259;48.306;14.374;2022-09-02T15:41:14;19.10;93.90
2497;DHT22;1259;48.306;14.374;2022-09-02T15:43:43;19.00;93.40
2497;DHT22;1259;48.306;14.374;2022-09-02T15:46:18;18.90;93.70
2497;DHT22;1259;48.306;14.374;2022-09-02T15:48:45;19.00;94.40
2497;DHT22;1259;48.306;14.374;2022-09-02T15:51:13;19.00;94.60
2497;DHT22;1259;48.306;14.374;2022-09-02T15:53:40;18.80;94.00
2497;DHT22;1259;48.306;14.374;2022-09-02T15:56:14;18.70;94.20
2497;DHT22;1259;48.306;14.374;2022-09-02T15:58:43;18.80;95.10
2497;DHT22;1259;48.306;14.374;2022-09-02T16:01:10;18.70;94.60
2497;DHT22;1259;48.306;14.374;2022-09-02T16:03:37;18.70;94.80
2497;DHT22;1259;48.306;14.374;2022-09-02T16:06:06;18.60;95.10
2497;DHT22;1259;48.306;14.374;2022-09-02T16:08:34;18.70;94.80
2497;DHT22;1259;48.306;14.374;2022-09-02T16:11:06;18.70;94.80
2497;DHT22;1259;48.306;14.374;2022-09-02T16:13:33;18.60;95.10
2497;DHT22;1259;48.306;14.374;2022-09-02T16:16:04;18.60;95.30
2497;DHT22;1259;48.306;14.374;2022-09-02T16:18:31;18.60;95.50
2497;DHT22;1259;48.306;14.374;2022-09-02T16:20:58;18.60;95.70
2497;DHT22;1259;48.306;14.374;2022-09-02T16:23:26;18.50;95.80
2497;DHT22;1259;48.306;14.374;2022-09-02T16:26:11;18.50;95.60
2497;DHT22;1259;48.306;14.374;2022-09-02T16:28:40;18.50;95.50
2497;DHT22;1259;48.306;14.374;2022-09-02T16:31:10;18.50;96.00
2497;DHT22;1259;48.306;14.374;2022-09-02T16:33:38;18.40;96.20